Time;durP1;ratioP1;P1;durP2;ratioP2;P2;SDS_P1;SDS_P2;PMS_P1;PMS_P2;Temp;Humidity;BMP_temperature;BMP_pressure;BME280_temperature;BME280_humidity;BME280_pressure;Samples;Min_cycle;Max_cycle;Signal;HPM_P1;HPM_P2
2021/03/23 00:00:45;;;;;;;34.27;18.10;;;6.10;61.30;;;;;;5072573;28;20462;-84
2021/03/23 00:03:17;;;;;;;29.33;17.47;;;6.00;60.90;;;;;;5071536;28;20461;-84
2021/03/23 00:05:44;;;;;;;35.90;20.00;;;6.10;62.30;;;;;;5072521;28;20451;-83
2021/03/23 00:08:26;;;;;;;34.70;18.17;;;6.10;62.30;;;;;;5072432;28;20497;-83
2021/03/23 00:13:29;;;;;;;36.97;16.67;;;6.10;64.10;;;;;;5193825;22;20474;-84
2021/03/23 00:15:56;;;;;;;33.30;18.23;;;6.00;65.90;;;;;;5072177;28;20442;-82
2021/03/23 00:18:27;;;;;;;31.17;17.70;;;6.00;68.40;;;;;;5071246;28;20457;-84
2021/03/23 00:20:56;;;;;;;38.77;19.80;;;6.00;68.40;;;;;;5119182;22;20488;-84
2021/03/23 00:23:22;;;;;;;39.93;19.17;;;5.90;70.90;;;;;;5072569;28;20457;-85
2021/03/23 00:25:49;;;;;;;30.63;18.03;;;6.00;73.00;;;;;;5072245;28;20454;-85
2021/03/23 00:28:15;;;;;;;33.80;19.87;;;5.90;74.40;;;;;;5072250;28;20454;-85
2021/03/23 00:30:45;;;;;;;27.57;17.57;;;5.80;74.40;;;;;;5072020;28;20490;-84
2021/03/23 00:33:12;;;;;;;33.77;22.10;;;5.50;77.50;;;;;;5074362;28;20542;-83
2021/03/23 00:35:38;;;;;;;33.90;21.13;;;5.30;82.90;;;;;;5075801;28;20454;-84
2021/03/23 00:38:07;;;;;;;33.73;19.67;;;5.20;91.20;;;;;;5075822;28;20453;-84
2021/03/23 00:40:37;;;;;;;38.10;23.13;;;5.00;94.10;;;;;;5075606;28;20447;-83
2021/03/23 00:43:09;;;;;;;33.93;22.50;;;4.80;97.70;;;;;;5075686;28;20505;-84
2021/03/23 00:45:40;;;;;;;40.27;26.03;;;4.60;99.90;;;;;;5075395;28;20474;-84
2021/03/23 00:48:09;;;;;;;47.13;29.07;;;4.40;99.90;;;;;;5074361;28;20454;-84
2021/03/23 00:50:41;;;;;;;43.60;28.93;;;4.30;99.90;;;;;;5075516;28;20840;-84
2021/03/23 00:53:08;;;;;;;42.93;31.03;;;4.00;99.90;;;;;;5075752;28;20455;-84
2021/03/23 00:55:37;;;;;;;54.50;36.87;;;3.90;99.90;;;;;;5075304;28;20463;-84
2021/03/23 00:58:06;;;;;;;48.97;39.20;;;3.90;99.90;;;;;;5075223;28;20493;-84
2021/03/23 01:00:32;;;;;;;51.00;43.77;;;3.80;99.90;;;;;;5075102;28;20455;-84
2021/03/23 01:03:04;;;;;;;54.57;47.67;;;3.80;99.90;;;;;;5074560;28;20592;-84
2021/03/23 01:05:34;;;;;;;58.50;53.10;;;3.70;99.90;;;;;;5075019;28;21010;-84
2021/03/23 01:08:01;;;;;;;59.07;53.27;;;3.60;99.90;;;;;;5075163;28;20805;-84
2021/03/23 01:10:32;;;;;;;60.47;54.27;;;3.50;99.90;;;;;;5074827;28;20481;-85
2021/03/23 01:13:02;;;;;;;67.47;61.43;;;3.20;99.90;;;;;;5075682;28;20455;-84
2021/03/23 01:15:30;;;;;;;69.47;63.37;;;3.30;99.90;;;;;;5285578;22;20547;-84
2021/03/23 01:17:57;;;;;;;73.23;66.93;;;3.30;99.90;;;;;;5072607;28;20489;-83
2021/03/23 01:20:26;;;;;;;72.63;66.43;;;3.20;99.90;;;;;;5074798;28;20458;-84
2021/03/23 01:22:53;;;;;;;92.20;84.30;;;3.20;99.90;;;;;;5075235;28;20453;-83
2021/03/23 01:25:22;;;;;;;100.70;93.20;;;3.20;99.90;;;;;;5074803;28;20461;-84
2021/03/23 01:27:52;;;;;;;103.00;95.63;;;3.40;99.90;;;;;;5074621;28;20497;-83
2021/03/23 01:30:20;;;;;;;106.83;98.70;;;3.40;99.90;;;;;;5074453;28;21007;-84
2021/03/23 01:32:47;;;;;;;117.30;107.70;;;3.60;99.90;;;;;;5075563;28;20458;-84
2021/03/23 01:35:23;;;;;;;104.20;95.53;;;3.70;99.90;;;;;;5074658;28;20458;-84
2021/03/23 01:37:49;;;;;;;100.83;92.83;;;3.90;99.90;;;;;;5074674;28;20461;-84
2021/03/23 01:40:21;;;;;;;89.70;81.23;;;3.90;99.90;;;;;;5074327;28;20464;-84
2021/03/23 01:45:30;;;;;;;66.80;59.80;;;4.10;99.90;;;;;;5334495;22;20508;-85
2021/03/23 01:48:02;;;;;;;62.27;54.23;;;4.20;99.90;;;;;;5073178;28;20472;-83
2021/03/23 01:50:31;;;;;;;68.07;47.27;;;4.30;99.90;;;;;;5074235;28;20523;-83
2021/03/23 01:53:07;;;;;;;59.03;41.47;;;4.40;99.90;;;;;;5074263;28;20956;-84
2021/03/23 01:55:36;;;;;;;52.40;40.97;;;4.40;99.90;;;;;;5074236;28;20454;-83
2021/03/23 01:58:10;;;;;;;64.70;38.77;;;4.50;99.90;;;;;;5074073;28;20457;-84
2021/03/23 02:00:39;;;;;;;55.57;33.67;;;4.50;99.90;;;;;;5074005;28;20462;-84
2021/03/23 02:03:06;;;;;;;55.23;35.30;;;4.60;99.90;;;;;;5073015;28;20451;-84
2021/03/23 02:05:34;;;;;;;55.07;34.10;;;4.70;99.90;;;;;;5073324;28;20483;-85
2021/03/23 02:08:11;;;;;;;49.73;30.80;;;4.80;99.90;;;;;;5073881;28;20456;-83
2021/03/23 02:10:40;;;;;;;53.20;30.50;;;4.90;99.90;;;;;;5073798;28;20505;-82
2021/03/23 02:13:08;;;;;;;50.27;28.70;;;5.00;99.90;;;;;;5073650;28;20454;-83
2021/03/23 02:15:38;;;;;;;52.50;28.77;;;5.00;99.90;;;;;;5788456;22;20527;-84
2021/03/23 02:18:16;;;;;;;52.40;30.40;;;4.90;99.90;;;;;;5071666;28;20470;-83
2021/03/23 02:21:15;;;;;;;49.70;27.90;;;4.90;99.90;;;;;;5073704;28;20494;-83
2021/03/23 02:23:49;;;;;;;50.10;29.33;;;5.10;94.70;;;;;;5012001;28;20464;-84
2021/03/23 02:26:19;;;;;;;54.03;26.93;;;5.00;92.60;;;;;;5062587;28;20458;-85
2021/03/23 02:28:52;;;;;;;50.50;27.50;;;5.20;91.70;;;;;;5073512;28;20482;-84
2021/03/23 02:31:22;;;;;;;55.87;29.90;;;5.10;94.50;;;;;;5072396;28;20486;-84
2021/03/23 02:33:54;;;;;;;55.43;28.57;;;5.10;93.80;;;;;;5073472;28;20515;-83
2021/03/23 02:36:22;;;;;;;45.47;27.90;;;5.20;87.70;;;;;;5073506;28;20455;-83
2021/03/23 02:38:51;;;;;;;45.13;27.70;;;5.20;82.20;;;;;;5073289;28;20451;-83
2021/03/23 02:41:19;;;;;;;64.47;29.50;;;5.20;81.60;;;;;;5073333;28;20493;-83
2021/03/23 02:43:46;;;;;;;43.93;27.37;;;5.40;83.90;;;;;;5073386;28;20469;-84
2021/03/23 02:46:12;;;;;;;47.03;28.67;;;5.30;83.40;;;;;;5071993;28;20451;-83
2021/03/23 02:48:40;;;;;;;48.37;28.47;;;5.40;84.50;;;;;;5073292;28;20450;-84
2021/03/23 02:51:07;;;;;;;51.93;28.40;;;5.30;83.80;;;;;;5073015;28;20989;-84
2021/03/23 02:56:05;;;;;;;49.53;26.53;;;5.30;79.20;;;;;;5070966;28;20471;-84
2021/03/23 02:58:46;;;;;;;;;;;;;;;;;;;;;
2021/03/23 03:01:14;;;;;;;55.90;32.30;;;5.30;73.90;;;;;;5072082;28;20509;-84
2021/03/23 03:03:44;;;;;;;49.77;30.30;;;5.30;91.70;;;;;;5072938;28;20459;-84
2021/03/23 03:06:11;;;;;;;59.97;30.60;;;5.20;94.20;;;;;;5072712;28;20447;-85
2021/03/23 03:08:42;;;;;;;49.43;29.17;;;5.10;90.90;;;;;;5073175;28;20458;-84
2021/03/23 03:11:12;;;;;;;47.73;28.00;;;5.20;86.50;;;;;;5072766;28;20577;-84
2021/03/23 03:13:48;;;;;;;48.23;28.43;;;5.10;86.90;;;;;;5072925;28;20473;-84
2021/03/23 03:16:17;;;;;;;53.13;28.43;;;5.20;86.40;;;;;;5071474;28;20453;-84
2021/03/23 03:18:44;;;;;;;55.97;31.13;;;5.20;91.10;;;;;;5072876;28;20454;-84
2021/03/23 03:21:12;;;;;;;52.30;29.70;;;5.10;92.60;;;;;;5072982;28;20798;-85
2021/03/23 03:23:41;;;;;;;47.43;29.90;;;5.20;91.30;;;;;;5072863;28;20446;-84
2021/03/23 03:26:07;;;;;;;50.83;29.53;;;5.10;93.00;;;;;;5072828;28;20455;-83
2021/03/23 03:28:38;;;;;;;60.80;33.00;;;5.10;94.30;;;;;;5072723;28;20492;-84
2021/03/23 03:31:07;;;;;;;49.90;31.60;;;5.10;96.20;;;;;;5072242;28;21073;-84
2021/03/23 03:33:34;;;;;;;56.27;33.93;;;5.10;97.00;;;;;;5071852;28;20495;-84
2021/03/23 03:36:10;;;;;;;53.83;32.10;;;5.10;98.00;;;;;;5072804;28;20879;-84
2021/03/23 03:38:43;;;;;;;51.73;30.27;;;5.00;99.90;;;;;;5072538;28;20529;-85
2021/03/23 03:41:15;;;;;;;52.07;32.17;;;5.00;99.90;;;;;;5072518;28;20454;-84
2021/03/23 03:43:47;;;;;;;54.10;31.47;;;5.10;99.90;;;;;;5072732;28;20819;-84
2021/03/23 03:46:15;;;;;;;55.40;35.17;;;5.00;99.90;;;;;;5071681;28;20525;-83
2021/03/23 03:48:44;;;;;;;53.50;32.70;;;5.10;99.90;;;;;;5072496;28;20858;-84
2021/03/23 03:51:13;;;;;;;54.10;32.80;;;5.00;99.90;;;;;;5072511;28;20883;-83
2021/03/23 03:53:40;;;;;;;62.77;34.30;;;5.00;99.90;;;;;;5072779;28;20874;-84
2021/03/23 03:56:07;;;;;;;59.97;35.20;;;5.00;99.90;;;;;;5072371;28;20960;-85
2021/03/23 03:58:33;;;;;;;59.17;37.80;;;5.00;99.90;;;;;;5072357;28;20489;-84
2021/03/23 04:01:03;;;;;;;60.30;35.37;;;5.10;99.90;;;;;;5072329;28;20516;-83
2021/03/23 04:03:35;;;;;;;50.13;33.30;;;5.00;99.90;;;;;;5071863;28;20898;-85
2021/03/23 04:06:02;;;;;;;63.53;37.43;;;5.10;99.90;;;;;;5072567;28;20476;-85
2021/03/23 04:08:33;;;;;;;68.63;36.90;;;5.10;99.90;;;;;;5076104;28;20450;-84
2021/03/23 04:11:05;;;;;;;52.03;31.87;;;5.00;99.90;;;;;;5076068;28;20485;-83
2021/03/23 04:13:33;;;;;;;60.07;33.30;;;5.10;99.90;;;;;;5076436;28;20446;-85
2021/03/23 04:16:05;;;;;;;53.40;31.80;;;5.20;99.90;;;;;;5075970;28;20504;-83
2021/03/23 04:18:33;;;;;;;50.00;30.70;;;5.20;99.90;;;;;;5075533;28;20652;-84
2021/03/23 04:21:03;;;;;;;55.33;30.57;;;5.10;99.90;;;;;;5075826;28;20460;-83
2021/03/23 04:23:37;;;;;;;48.87;30.10;;;5.20;99.90;;;;;;5075952;28;21016;-83
2021/03/23 04:26:05;;;;;;;54.90;30.63;;;5.20;99.90;;;;;;5075860;28;20527;-84
2021/03/23 04:28:34;;;;;;;62.63;30.80;;;5.30;99.90;;;;;;5075777;28;20446;-84
2021/03/23 04:31:04;;;;;;;53.70;31.60;;;5.30;99.90;;;;;;5075774;28;21503;-84
2021/03/23 04:33:36;;;;;;;55.90;31.27;;;5.20;99.90;;;;;;5075240;28;20454;-84
2021/03/23 04:36:08;;;;;;;60.80;35.17;;;5.30;99.70;;;;;;5075894;28;20916;-84
2021/03/23 04:38:37;;;;;;;51.30;30.50;;;5.30;97.70;;;;;;5075851;28;20953;-84
2021/03/23 04:41:17;;;;;;;52.57;30.47;;;5.30;97.50;;;;;;5075806;28;20455;-83
2021/03/23 04:43:47;;;;;;;52.33;31.00;;;5.40;95.10;;;;;;5075592;28;20976;-84
2021/03/23 04:46:18;;;;;;;53.33;31.70;;;5.40;95.10;;;;;;5074553;28;20538;-84
2021/03/23 04:48:47;;;;;;;57.50;31.90;;;5.50;95.30;;;;;;5398758;22;20489;-83
2021/03/23 04:51:14;;;;;;;59.20;34.90;;;5.50;94.40;;;;;;5075346;28;20840;-84
2021/03/23 04:53:42;;;;;;;56.73;32.57;;;5.50;94.60;;;;;;5075576;28;20460;-84
2021/03/23 04:56:19;;;;;;;57.50;29.00;;;5.40;93.80;;;;;;5075299;28;20459;-84
2021/03/23 04:58:47;;;;;;;53.53;30.77;;;5.50;96.30;;;;;;5075470;28;20450;-84
2021/03/23 05:01:24;;;;;;;54.53;31.80;;;5.50;96.10;;;;;;5074104;28;20455;-83
2021/03/23 05:03:53;;;;;;;54.33;32.07;;;5.50;96.40;;;;;;5075260;28;20969;-84
2021/03/23 05:06:23;;;;;;;53.50;31.17;;;5.40;97.00;;;;;;5075319;28;20925;-84
2021/03/23 05:08:54;;;;;;;54.93;30.97;;;5.50;97.10;;;;;;5075292;28;20459;-84
2021/03/23 05:11:25;;;;;;;55.43;32.03;;;5.40;97.30;;;;;;5074946;28;21015;-83
2021/03/23 05:13:52;;;;;;;49.43;31.10;;;5.40;96.80;;;;;;5074900;28;20569;-83
2021/03/23 05:16:21;;;;;;;53.73;34.57;;;5.40;96.10;;;;;;5073877;28;20466;-85
2021/03/23 05:18:48;;;;;;;52.63;31.43;;;5.50;96.30;;;;;;5074388;28;20508;-82
2021/03/23 05:21:14;;;;;;;51.37;29.73;;;5.50;96.30;;;;;;5075002;28;20850;-84
2021/03/23 05:23:47;;;;;;;57.93;31.17;;;5.50;96.30;;;;;;5074667;28;20454;-84
2021/03/23 05:26:13;;;;;;;54.97;32.97;;;5.40;98.80;;;;;;5073988;28;20583;-83
2021/03/23 05:28:40;;;;;;;55.50;32.57;;;5.40;99.90;;;;;;5072563;28;20455;-85
2021/03/23 05:31:09;;;;;;;59.40;33.43;;;5.50;99.90;;;;;;5073041;28;20497;-86
2021/03/23 05:33:38;;;;;;;55.23;31.33;;;5.40;99.90;;;;;;5073644;28;20856;-82
2021/03/23 05:36:05;;;;;;;54.30;33.30;;;5.40;99.90;;;;;;5072986;28;20457;-86
2021/03/23 05:38:32;;;;;;;59.70;33.87;;;5.40;99.90;;;;;;5073554;28;20462;-85
2021/03/23 05:41:03;;;;;;;57.43;32.20;;;5.40;99.90;;;;;;5073545;28;20515;-85
2021/03/23 05:43:42;;;;;;;57.57;34.27;;;5.40;98.30;;;;;;5073563;28;20482;-85
2021/03/23 05:46:22;;;;;;;56.97;31.37;;;5.50;97.20;;;;;;5072638;28;20450;-84
2021/03/23 05:48:59;;;;;;;54.60;31.70;;;5.40;98.00;;;;;;5073281;28;20482;-84
2021/03/23 05:51:30;;;;;;;65.23;32.80;;;5.50;98.50;;;;;;5073128;28;20512;-85
2021/03/23 05:54:02;;;;;;;60.50;33.93;;;5.50;99.90;;;;;;5073181;28;20462;-83
2021/03/23 05:56:29;;;;;;;58.87;34.50;;;5.50;99.90;;;;;;5073092;28;20455;-85
2021/03/23 05:59:12;;;;;;;59.83;31.13;;;5.50;99.90;;;;;;5072926;28;20512;-84
2021/03/23 06:01:47;;;;;;;53.70;32.00;;;5.50;99.90;;;;;;5072551;28;20450;-83
2021/03/23 06:04:21;;;;;;;53.50;32.70;;;5.50;99.90;;;;;;5072875;28;20469;-83
2021/03/23 06:07:00;;;;;;;57.10;33.77;;;5.60;99.70;;;;;;5072857;28;20458;-84
2021/03/23 06:09:34;;;;;;;64.20;34.40;;;5.60;98.70;;;;;;5072606;28;20450;-83
2021/03/23 06:12:14;;;;;;;58.87;35.00;;;5.60;98.10;;;;;;5073135;28;20848;-85
2021/03/23 06:14:47;;;;;;;61.33;36.07;;;5.50;97.40;;;;;;5072670;28;20457;-84
2021/03/23 06:17:30;;;;;;;59.97;32.33;;;5.70;96.40;;;;;;5072080;28;20500;-87
2021/03/23 06:20:38;;;;;;;54.93;31.50;;;5.80;91.90;;;;;;5072515;28;21010;-84
2021/03/23 06:23:45;;;;;;;62.43;32.23;;;5.70;89.60;;;;;;5052336;28;20554;-85
2021/03/23 06:26:21;;;;;;;56.17;29.83;;;5.90;82.10;;;;;;5072526;28;20454;-85
2021/03/23 06:29:01;;;;;;;53.17;29.80;;;6.00;78.30;;;;;;5071725;28;20454;-83
2021/03/23 06:31:45;;;;;;;53.90;30.13;;;6.00;77.10;;;;;;5071523;28;20490;-82
2021/03/23 06:34:15;;;;;;;52.30;29.60;;;6.10;74.00;;;;;;5072499;28;21004;-85
2021/03/23 06:36:43;;;;;;;56.00;31.73;;;6.20;68.40;;;;;;5072162;28;20546;-82
2021/03/23 06:39:10;;;;;;;44.57;27.47;;;6.30;67.20;;;;;;5072335;28;20458;-81
2021/03/23 06:41:52;;;;;;;45.67;27.40;;;6.30;62.60;;;;;;5072846;28;20455;-83
2021/03/23 06:44:37;;;;;;;50.40;28.50;;;6.30;58.80;;;;;;5071925;28;20458;-81
2021/03/23 06:47:05;;;;;;;45.63;28.40;;;6.50;55.40;;;;;;5069339;28;20450;-83
2021/03/23 06:49:34;;;;;;;48.47;29.10;;;6.50;55.90;;;;;;5072060;28;20536;-82
2021/03/23 06:52:22;;;;;;;48.90;28.27;;;6.60;54.40;;;;;;5072270;28;20569;-82
2021/03/23 06:55:23;;;;;;;50.70;28.00;;;6.70;51.80;;;;;;5071888;28;20523;-83
2021/03/23 06:57:49;;;;;;;42.80;24.90;;;6.70;49.30;;;;;;4990783;28;20443;-82
2021/03/23 07:00:27;;;;;;;43.70;25.90;;;6.80;48.90;;;;;;4990607;28;20529;-82
2021/03/23 07:03:08;;;;;;;36.03;24.10;;;6.90;45.90;;;;;;5032358;28;20475;-83
2021/03/23 07:05:37;;;;;;;43.53;23.57;;;7.00;43.00;;;;;;5072111;28;20463;-82
2021/03/23 07:08:20;;;;;;;46.70;23.87;;;7.00;42.30;;;;;;5071888;28;20488;-83
2021/03/23 07:11:08;;;;;;;41.13;24.10;;;7.10;42.40;;;;;;5071685;28;20518;-83
2021/03/23 07:13:40;;;;;;;44.00;21.80;;;7.10;42.30;;;;;;5069450;28;20456;-83
2021/03/23 07:16:42;;;;;;;53.00;27.07;;;7.20;40.30;;;;;;5069543;28;20940;-83
2021/03/23 07:19:10;;;;;;;43.00;24.70;;;7.20;41.40;;;;;;5050232;28;20454;-83
2021/03/23 07:21:51;;;;;;;40.33;24.03;;;7.30;40.70;;;;;;5070813;28;20490;-83
2021/03/23 07:24:20;;;;;;;44.00;26.17;;;7.30;39.60;;;;;;5070104;28;20442;-83
2021/03/23 07:27:00;;;;;;;41.50;24.43;;;7.40;39.10;;;;;;5070275;28;20458;-83
2021/03/23 07:29:30;;;;;;;47.27;25.13;;;7.40;39.00;;;;;;5070237;28;20452;-83
2021/03/23 07:32:09;;;;;;;42.07;23.07;;;7.50;38.20;;;;;;5072005;28;20490;-83
2021/03/23 07:34:59;;;;;;;45.07;24.00;;;7.40;38.00;;;;;;5070233;28;20494;-83
2021/03/23 07:37:43;;;;;;;43.97;24.00;;;7.60;38.90;;;;;;5066866;28;20535;-82
2021/03/23 07:43:32;;;;;;;44.60;25.00;;;7.80;35.30;;;;;;5833741;22;20465;-83
2021/03/23 07:46:04;;;;;;;39.23;22.30;;;7.90;36.40;;;;;;5043556;28;20952;-83
2021/03/23 07:48:43;;;;;;;40.53;22.03;;;8.00;35.20;;;;;;5078628;28;20550;-83
2021/03/23 07:53:44;;;;;;;40.27;24.13;;;7.90;34.10;;;;;;5528817;22;20488;-83
2021/03/23 07:56:31;;;;;;;44.83;24.90;;;8.10;34.40;;;;;;5074281;28;20466;-83
2021/03/23 07:59:10;;;;;;;36.70;21.87;;;8.20;34.40;;;;;;5072229;28;20502;-83
2021/03/23 08:04:14;;;;;;;41.23;22.80;;;8.40;31.50;;;;;;5317430;22;20494;-83
2021/03/23 08:06:54;;;;;;;41.27;23.60;;;8.40;31.40;;;;;;5073989;28;20464;-83
2021/03/23 08:09:35;;;;;;;39.87;22.20;;;8.30;30.00;;;;;;5073940;28;20460;-83
2021/03/23 08:12:17;;;;;;;42.43;24.63;;;8.50;30.40;;;;;;5074349;28;20596;-83
2021/03/23 08:15:01;;;;;;;39.27;24.40;;;8.60;29.80;;;;;;5074557;28;20567;-83
2021/03/23 08:17:52;;;;;;;38.53;22.20;;;8.60;29.00;;;;;;5071608;28;21002;-82
2021/03/23 08:20:52;;;;;;;38.63;21.67;;;8.70;29.10;;;;;;5073592;28;20453;-83
2021/03/23 08:23:30;;;;;;;39.63;20.97;;;8.90;28.00;;;;;;5070908;28;20465;-81
2021/03/23 08:26:05;;;;;;;41.90;25.13;;;8.90;27.00;;;;;;5073443;28;20461;-83
2021/03/23 08:28:48;;;;;;;42.27;23.77;;;8.90;27.10;;;;;;5059344;28;20451;-83
2021/03/23 08:31:31;;;;;;;43.93;21.90;;;8.90;27.00;;;;;;5067284;28;20486;-83
2021/03/23 08:34:27;;;;;;;42.87;21.53;;;9.00;27.10;;;;;;5080402;28;20461;-83
2021/03/23 08:37:20;;;;;;;39.13;20.97;;;9.20;27.20;;;;;;5080791;28;20466;-83
2021/03/23 08:39:54;;;;;;;34.70;18.93;;;9.30;25.50;;;;;;5072411;28;20458;-81
2021/03/23 08:42:22;;;;;;;37.43;21.50;;;9.30;24.70;;;;;;5071116;28;21004;-83
2021/03/23 08:44:58;;;;;;;36.10;19.30;;;9.30;25.10;;;;;;5066523;28;20465;-83
2021/03/23 08:47:29;;;;;;;39.20;20.27;;;9.50;25.00;;;;;;5069957;28;20818;-81
2021/03/23 08:49:59;;;;;;;35.50;19.83;;;9.50;23.40;;;;;;5063842;28;20547;-83
2021/03/23 08:52:40;;;;;;;42.97;21.93;;;9.70;24.30;;;;;;5060281;28;20492;-83
2021/03/23 08:55:53;;;;;;;40.90;21.43;;;9.80;24.60;;;;;;5033034;28;20455;-83
2021/03/23 08:58:45;;;;;;;41.63;18.60;;;9.80;23.50;;;;;;5028197;28;20935;-83
2021/03/23 09:01:32;;;;;;;41.60;21.23;;;9.70;22.90;;;;;;5055095;28;20455;-84
2021/03/23 09:04:30;;;;;;;40.23;21.80;;;9.90;23.30;;;;;;5054819;28;20475;-84
2021/03/23 09:07:00;;;;;;;38.13;19.83;;;9.90;23.30;;;;;;5054947;28;20552;-84
2021/03/23 09:09:41;;;;;;;35.70;21.20;;;10.00;21.70;;;;;;5055102;28;20447;-84
2021/03/23 09:12:14;;;;;;;45.17;20.47;;;10.30;22.80;;;;;;5055133;28;20779;-84
2021/03/23 09:15:15;;;;;;;40.90;19.23;;;10.40;22.30;;;;;;5054982;28;20546;-82
2021/03/23 09:17:52;;;;;;;44.67;21.00;;;10.40;19.90;;;;;;5053577;28;20462;-84
2021/03/23 09:21:01;;;;;;;37.13;18.60;;;10.50;20.20;;;;;;5054812;28;20457;-84
2021/03/23 09:23:49;;;;;;;38.33;19.47;;;10.60;20.20;;;;;;5034470;28;20451;-83
2021/03/23 09:26:55;;;;;;;33.30;18.77;;;10.60;20.30;;;;;;5054665;28;20475;-84
2021/03/23 09:29:46;;;;;;;31.87;17.60;;;10.60;20.30;;;;;;5054534;28;20462;-83
2021/03/23 09:32:18;;;;;;;33.93;18.67;;;10.70;17.20;;;;;;5053330;28;20521;-84
2021/03/23 09:35:09;;;;;;;36.53;18.80;;;10.70;18.90;;;;;;5054396;28;20459;-83
2021/03/23 09:37:39;;;;;;;30.07;17.30;;;10.50;16.60;;;;;;5054420;28;20885;-83
2021/03/23 09:40:47;;;;;;;45.97;19.77;;;10.60;17.40;;;;;;5054300;28;20864;-83
2021/03/23 09:43:36;;;;;;;43.10;17.70;;;10.80;17.70;;;;;;5054445;28;20465;-83
2021/03/23 09:46:07;;;;;;;38.60;18.90;;;10.90;16.50;;;;;;5054570;28;20553;-83
2021/03/23 09:48:54;;;;;;;40.23;19.67;;;10.90;15.60;;;;;;5053094;28;20558;-83
2021/03/23 09:51:54;;;;;;;32.50;18.00;;;11.20;16.20;;;;;;5054161;28;20525;-82
2021/03/23 09:54:25;;;;;;;40.57;19.20;;;11.30;13.50;;;;;;5054307;28;20467;-84
2021/03/23 09:56:57;;;;;;;34.33;17.83;;;11.50;14.70;;;;;;5054164;28;20485;-85
2021/03/23 09:59:28;;;;;;;34.37;17.57;;;11.90;15.80;;;;;;5053920;28;20942;-81
2021/03/23 10:02:00;;;;;;;34.73;18.80;;;12.00;13.90;;;;;;5053031;28;20475;-86
2021/03/23 10:04:30;;;;;;;42.33;18.37;;;12.50;13.30;;;;;;5053665;28;20527;-86
2021/03/23 10:06:57;;;;;;;32.67;19.23;;;12.40;13.20;;;;;;5054088;28;20487;-85
2021/03/23 10:09:27;;;;;;;39.47;19.37;;;12.60;11.40;;;;;;5053698;28;20452;-85
2021/03/23 10:11:54;;;;;;;34.87;17.60;;;12.30;10.70;;;;;;5053876;28;20514;-85
2021/03/23 10:14:31;;;;;;;38.17;19.10;;;12.00;10.60;;;;;;5053924;28;20475;-86
2021/03/23 10:17:13;;;;;;;34.93;18.33;;;11.90;12.00;;;;;;5052413;28;20448;-83
2021/03/23 10:19:52;;;;;;;34.83;18.77;;;11.80;13.50;;;;;;5053707;28;20489;-83
2021/03/23 10:22:28;;;;;;;43.33;17.40;;;12.30;14.20;;;;;;5054733;28;20494;-88
2021/03/23 10:24:57;;;;;;;34.50;18.60;;;12.40;11.20;;;;;;5053812;28;20516;-84
2021/03/23 10:27:31;;;;;;;37.07;18.50;;;12.30;10.40;;;;;;5053630;28;20455;-84
2021/03/23 10:30:11;;;;;;;33.50;19.13;;;12.40;9.50;;;;;;5053680;28;21180;-87
2021/03/23 10:32:48;;;;;;;35.60;19.00;;;12.70;10.10;;;;;;5052450;28;20483;-83
2021/03/23 10:35:24;;;;;;;39.97;18.33;;;12.70;9.50;;;;;;5053346;28;20480;-83
2021/03/23 10:38:23;;;;;;;34.00;18.53;;;12.90;10.70;;;;;;5053255;28;20516;-85
2021/03/23 10:40:51;;;;;;;34.50;18.03;;;12.90;10.10;;;;;;5053173;28;20545;-85
2021/03/23 10:43:30;;;;;;;39.23;16.77;;;12.70;8.40;;;;;;5053072;28;20512;-81
2021/03/23 10:46:04;;;;;;;39.30;18.80;;;13.10;8.50;;;;;;5053416;28;20450;-84
2021/03/23 10:48:34;;;;;;;36.83;18.30;;;13.70;7.70;;;;;;5051848;28;20457;-82
2021/03/23 10:51:17;;;;;;;39.00;19.70;;;14.30;8.10;;;;;;5052902;28;20977;-82
2021/03/23 10:53:59;;;;;;;40.77;20.90;;;14.40;4.90;;;;;;5052858;28;21010;-82
2021/03/23 10:56:30;;;;;;;37.93;17.90;;;14.40;4.20;;;;;;5053062;28;20509;-82
2021/03/23 10:59:10;;;;;;;40.13;18.40;;;14.60;5.10;;;;;;5052900;28;20573;-81
2021/03/23 11:01:37;;;;;;;38.57;22.27;;;14.80;4.40;;;;;;5051325;28;20507;-80
2021/03/23 11:04:52;;;;;;;40.30;20.90;;;15.00;3.50;;;;;;5052740;28;20471;-82
2021/03/23 11:07:24;;;;;;;40.67;20.63;;;14.60;1.00;;;;;;5052033;28;20534;-84
2021/03/23 11:09:50;;;;;;;36.63;18.83;;;14.40;2.10;;;;;;5052760;28;20471;-84
2021/03/23 11:12:17;;;;;;;38.47;22.13;;;14.30;2.60;;;;;;5052926;28;20488;-84
2021/03/23 11:14:44;;;;;;;46.33;20.27;;;14.20;5.40;;;;;;5052720;28;20538;-83
2021/03/23 11:17:21;;;;;;;39.07;21.30;;;15.00;5.90;;;;;;5051533;28;20451;-86
2021/03/23 11:19:50;;;;;;;41.03;19.50;;;15.10;1.00;;;;;;5052773;28;20454;-83
2021/03/23 11:22:21;;;;;;;41.27;22.43;;;15.60;1.40;;;;;;5052672;28;20483;-84
2021/03/23 11:24:48;;;;;;;39.73;21.40;;;15.30;1.00;;;;;;5047291;28;20557;-83
2021/03/23 11:27:17;;;;;;;40.53;21.33;;;15.00;1.00;;;;;;5049984;28;20451;-84
2021/03/23 11:29:44;;;;;;;39.10;21.23;;;15.50;1.00;;;;;;5049415;28;20458;-82
2021/03/23 11:32:11;;;;;;;40.13;20.70;;;15.30;1.00;;;;;;5049417;28;20443;-83
2021/03/23 11:34:38;;;;;;;39.07;22.40;;;14.70;1.00;;;;;;5050154;28;20543;-82
2021/03/23 11:37:05;;;;;;;43.90;22.60;;;14.60;1.70;;;;;;5049864;28;20451;-84
2021/03/23 11:39:33;;;;;;;39.03;20.30;;;15.10;2.10;;;;;;5050095;28;20542;-84
2021/03/23 11:42:04;;;;;;;37.33;22.23;;;15.80;2.10;;;;;;5030352;28;20488;-83
2021/03/23 11:44:35;;;;;;;43.57;20.93;;;16.20;1.00;;;;;;5030691;28;20582;-83
2021/03/23 11:47:09;;;;;;;45.13;21.73;;;16.30;1.00;;;;;;5029573;28;20543;-83
2021/03/23 11:49:48;;;;;;;42.37;21.63;;;16.10;1.00;;;;;;5047944;28;20956;-82
2021/03/23 11:52:16;;;;;;;38.50;21.33;;;16.50;1.00;;;;;;5050958;28;20506;-84
2021/03/23 11:54:44;;;;;;;36.80;20.60;;;15.90;1.00;;;;;;5050681;28;20459;-83
2021/03/23 11:57:12;;;;;;;36.97;17.90;;;16.10;1.00;;;;;;5050172;28;20459;-82
2021/03/23 11:59:42;;;;;;;33.53;18.50;;;15.10;1.00;;;;;;5050071;28;20546;-83
2021/03/23 12:02:12;;;;;;;44.47;19.87;;;15.70;1.00;;;;;;5046860;28;20479;-82
2021/03/23 12:04:39;;;;;;;38.90;20.20;;;15.50;1.00;;;;;;5049198;28;20571;-83
2021/03/23 12:07:15;;;;;;;34.17;19.50;;;15.50;1.00;;;;;;5061377;28;20459;-83
2021/03/23 12:09:52;;;;;;;38.03;20.37;;;15.40;1.00;;;;;;5069929;28;20454;-84
2021/03/23 12:12:29;;;;;;;35.07;19.10;;;15.40;1.00;;;;;;5067647;28;20491;-83
2021/03/23 12:15:05;;;;;;;34.90;18.90;;;15.60;1.00;;;;;;5069976;28;20475;-84
2021/03/23 12:17:34;;;;;;;39.70;19.30;;;15.50;1.30;;;;;;5068924;28;20450;-83
2021/03/23 12:20:05;;;;;;;36.63;20.60;;;15.60;1.00;;;;;;5069778;28;20453;-83
2021/03/23 12:22:33;;;;;;;38.17;19.47;;;15.30;1.00;;;;;;5071350;28;20482;-83
2021/03/23 12:25:01;;;;;;;35.67;17.70;;;15.00;1.00;;;;;;5070800;28;20450;-82
2021/03/23 12:27:40;;;;;;;36.17;18.83;;;14.90;1.00;;;;;;5054744;28;20787;-83
2021/03/23 12:30:15;;;;;;;38.20;18.87;;;14.10;2.90;;;;;;5056661;28;20451;-82
2021/03/23 12:32:42;;;;;;;34.70;19.43;;;13.90;2.40;;;;;;5054936;28;20997;-83
2021/03/23 12:35:12;;;;;;;38.80;19.13;;;14.40;1.70;;;;;;5055649;28;20455;-85
2021/03/23 12:37:41;;;;;;;32.37;18.33;;;14.10;1.00;;;;;;5055730;28;20469;-82
2021/03/23 12:40:11;;;;;;;32.40;18.03;;;13.80;1.00;;;;;;5055820;28;20857;-83
2021/03/23 12:42:38;;;;;;;36.30;20.13;;;14.30;1.00;;;;;;5055537;28;20834;-84
2021/03/23 12:45:06;;;;;;;36.83;20.43;;;14.90;1.00;;;;;;5055613;28;20458;-84
2021/03/23 12:47:33;;;;;;;40.10;21.00;;;15.60;1.00;;;;;;5054106;28;20451;-83
2021/03/23 12:50:00;;;;;;;34.13;19.20;;;15.40;1.00;;;;;;5055276;28;20980;-83
2021/03/23 12:52:26;;;;;;;40.17;20.77;;;15.90;1.00;;;;;;5055464;28;20460;-83
2021/03/23 12:54:57;;;;;;;42.37;20.47;;;16.60;1.00;;;;;;5055360;28;20551;-82
2021/03/23 12:57:26;;;;;;;39.50;20.10;;;16.60;1.00;;;;;;5055281;28;20458;-82
2021/03/23 12:59:54;;;;;;;40.72;21.50;;;17.10;1.00;;;;;;5054806;28;20910;-83
2021/03/23 13:02:22;;;;;;;37.37;21.53;;;16.50;1.00;;;;;;5053775;28;20768;-84
2021/03/23 13:04:51;;;;;;;39.23;21.73;;;16.30;1.00;;;;;;5055078;28;20505;-84
2021/03/23 13:07:20;;;;;;;42.17;20.60;;;15.80;1.00;;;;;;5055150;28;20451;-84
2021/03/23 13:09:48;;;;;;;40.27;19.10;;;15.70;1.00;;;;;;5055179;28;20813;-83
2021/03/23 13:12:15;;;;;;;37.53;20.00;;;14.70;1.00;;;;;;5055022;28;20456;-82
2021/03/23 13:14:44;;;;;;;34.30;20.40;;;15.00;1.00;;;;;;5055078;28;20455;-84
2021/03/23 13:17:12;;;;;;;36.73;20.53;;;14.80;1.00;;;;;;5053679;28;20811;-83
2021/03/23 13:19:39;;;;;;;38.63;20.93;;;14.80;1.00;;;;;;5054671;28;20455;-83
2021/03/23 13:22:10;;;;;;;39.10;21.00;;;15.20;1.00;;;;;;5054972;28;20841;-82
2021/03/23 13:24:40;;;;;;;35.13;19.93;;;15.40;1.00;;;;;;5054852;28;20473;-83